createdAt,value
2023-03-15T00:02:10.776Z,69.51
2023-03-15T00:04:42.804Z,69.61
2023-03-15T00:07:11.342Z,69.61
2023-03-15T00:09:44.648Z,69.67
2023-03-15T00:12:15.180Z,69.73
2023-03-15T00:14:43.916Z,69.79
2023-03-15T00:17:15.410Z,69.78
2023-03-15T00:19:43.973Z,69.66
2023-03-15T00:22:17.081Z,69.65
2023-03-15T00:24:45.552Z,69.58
2023-03-15T00:27:16.993Z,69.36
2023-03-15T00:29:45.748Z,69.21
2023-03-15T00:32:17.228Z,69.04
2023-03-15T00:34:48.673Z,68.99
2023-03-15T00:37:19.241Z,68.96
2023-03-15T00:39:48.454Z,69.02
2023-03-15T00:42:16.983Z,68.88
2023-03-15T00:44:47.465Z,68.79
2023-03-15T00:47:17.140Z,68.80
2023-03-15T00:49:48.321Z,68.74
2023-03-15T00:52:22.003Z,68.80
2023-03-15T00:54:55.639Z,68.77
2023-03-15T00:57:34.183Z,68.67
2023-03-15T01:00:24.397Z,68.58
2023-03-15T01:02:56.577Z,68.48
2023-03-15T01:05:26.044Z,68.40
2023-03-15T01:07:56.752Z,68.33
2023-03-15T01:10:24.912Z,68.41
2023-03-15T01:12:55.812Z,68.31
2023-03-15T01:15:24.155Z,68.15
2023-03-15T01:17:56.463Z,68.05
2023-03-15T01:20:26.605Z,67.94
2023-03-15T01:22:54.691Z,67.97
2023-03-15T01:25:25.946Z,67.77
2023-03-15T01:27:54.464Z,67.84
2023-03-15T01:30:29.747Z,67.91
2023-03-15T01:32:58.235Z,67.83
2023-03-15T01:35:28.445Z,67.71
2023-03-15T01:37:58.792Z,67.88
2023-03-15T01:40:27.752Z,67.84
2023-03-15T01:43:06.022Z,67.79
2023-03-15T01:46:01.767Z,67.81
2023-03-15T01:48:45.212Z,67.74
2023-03-15T01:51:44.900Z,67.71
2023-03-15T01:54:15.612Z,67.69
2023-03-15T01:57:00.209Z,67.76
2023-03-15T01:59:48.983Z,67.78
2023-03-15T02:02:18.947Z,67.80
2023-03-15T02:05:09.388Z,67.71
2023-03-15T02:07:49.410Z,67.86
2023-03-15T02:10:30.329Z,67.86
2023-03-15T02:13:05.514Z,67.91
2023-03-15T02:15:36.761Z,67.87
2023-03-15T02:18:06.851Z,67.73
2023-03-15T02:21:34.031Z,67.63
2023-03-15T02:24:56.444Z,67.77
2023-03-15T02:27:35.064Z,67.76
2023-03-15T02:30:07.709Z,67.65
2023-03-15T02:32:36.247Z,67.59
2023-03-15T02:35:05.418Z,67.65
2023-03-15T02:37:34.125Z,67.79
2023-03-15T02:40:04.348Z,67.73
2023-03-15T02:42:32.739Z,67.82
2023-03-15T02:45:01.630Z,67.82
2023-03-15T02:47:33.554Z,67.64
2023-03-15T02:50:07.832Z,67.53
2023-03-15T02:52:38.743Z,67.65
2023-03-15T02:55:09.954Z,67.63
2023-03-15T02:57:38.249Z,67.66
2023-03-15T03:00:14.115Z,67.52
2023-03-15T03:02:53.994Z,67.44
2023-03-15T03:05:22.956Z,67.44
2023-03-15T03:07:51.040Z,67.52
2023-03-15T03:10:24.530Z,67.55
2023-03-15T03:12:56.093Z,67.37
2023-03-15T03:15:34.532Z,67.32
2023-03-15T03:18:03.857Z,67.32
2023-03-15T03:20:34.691Z,67.35
2023-03-15T03:23:05.980Z,67.33
2023-03-15T03:25:36.191Z,67.32
2023-03-15T03:28:04.388Z,67.27
2023-03-15T03:30:36.014Z,67.24
2023-03-15T03:33:06.695Z,67.16
2023-03-15T03:35:34.574Z,67.24
2023-03-15T03:38:02.329Z,67.33
2023-03-15T03:40:34.874Z,67.40
2023-03-15T03:43:07.165Z,67.39
2023-03-15T03:45:35.876Z,67.16
2023-03-15T03:48:04.782Z,67.04
2023-03-15T03:50:34.256Z,67.02
2023-03-15T03:53:03.463Z,67.04
2023-03-15T03:55:45.963Z,67.03
2023-03-15T03:58:17.409Z,66.95
2023-03-15T04:00:57.592Z,66.86
2023-03-15T04:03:28.092Z,66.67
2023-03-15T04:06:07.725Z,66.80
2023-03-15T04:08:41.172Z,66.76
2023-03-15T04:11:14.278Z,66.69
2023-03-15T04:13:45.074Z,66.61
2023-03-15T04:16:16.385Z,66.58
2023-03-15T04:19:05.363Z,66.52
2023-03-15T04:21:37.614Z,66.35
2023-03-15T04:24:26.123Z,66.32
2023-03-15T04:27:14.055Z,66.38
2023-03-15T04:29:57.951Z,66.45
2023-03-15T04:32:44.741Z,66.24
2023-03-15T04:35:30.817Z,66.32
2023-03-15T04:38:26.347Z,66.41
2023-03-15T04:41:18.283Z,66.39
2023-03-15T04:44:05.708Z,66.48
2023-03-15T04:46:40.364Z,66.55
2023-03-15T04:49:16.668Z,66.57
2023-03-15T04:51:57.330Z,66.59
2023-03-15T04:55:01.356Z,66.60
2023-03-15T04:57:56.182Z,66.61
2023-03-15T05:00:43.001Z,66.59
2023-03-15T05:03:27.560Z,66.82
2023-03-15T05:06:28.894Z,66.88
2023-03-15T05:09:19.093Z,66.95
2023-03-15T05:12:13.327Z,67.05
2023-03-15T05:15:01.673Z,67.12
2023-03-15T05:17:45.958Z,66.99
2023-03-15T05:20:42.956Z,67.19
2023-03-15T05:23:33.159Z,67.22
2023-03-15T05:26:14.063Z,67.20
2023-03-15T05:29:05.324Z,67.33
2023-03-15T05:31:53.580Z,67.31
2023-03-15T05:34:44.887Z,67.46
2023-03-15T05:37:33.608Z,67.51
2023-03-15T05:40:45.994Z,67.51
2023-03-15T05:43:35.268Z,67.62
2023-03-15T05:46:31.512Z,67.70
2023-03-15T05:49:10.790Z,67.59
2023-03-15T05:51:57.871Z,67.53
2023-03-15T05:54:36.645Z,67.58
2023-03-15T05:57:24.408Z,67.51
2023-03-15T06:00:16.712Z,67.59
2023-03-15T06:02:48.103Z,67.36
2023-03-15T06:05:29.598Z,67.24
2023-03-15T06:07:58.862Z,67.15
2023-03-15T06:10:31.777Z,67.23
2023-03-15T06:13:01.629Z,67.24
2023-03-15T06:15:30.458Z,67.28
2023-03-15T06:18:00.552Z,67.00
2023-03-15T06:20:32.911Z,66.74
2023-03-15T06:23:07.338Z,66.70
2023-03-15T06:25:42.084Z,66.72
2023-03-15T06:28:11.147Z,66.54
2023-03-15T06:30:42.797Z,66.50
2023-03-15T06:33:11.975Z,66.50
2023-03-15T06:35:40.784Z,66.31
2023-03-15T06:38:12.630Z,66.35
2023-03-15T06:40:42.485Z,66.48
2023-03-15T06:43:18.289Z,66.14
2023-03-15T06:45:53.162Z,66.01
2023-03-15T06:48:22.389Z,65.59
2023-03-15T06:51:05.679Z,65.52
2023-03-15T06:53:40.605Z,65.77
2023-03-15T06:56:11.930Z,65.74
2023-03-15T06:58:40.548Z,65.40
2023-03-15T07:01:13.829Z,65.14
2023-03-15T07:03:46.143Z,64.50
2023-03-15T07:06:15.246Z,64.27
2023-03-15T07:08:48.611Z,63.72
2023-03-15T07:11:17.019Z,63.36
2023-03-15T07:14:12.255Z,63.32
2023-03-15T07:16:40.768Z,63.08
2023-03-15T07:19:09.323Z,62.98
2023-03-15T07:21:45.264Z,63.42
2023-03-15T07:24:15.780Z,63.63
2023-03-15T07:26:44.458Z,63.44
2023-03-15T07:29:12.713Z,63.32
2023-03-15T07:32:01.897Z,63.30
2023-03-15T07:34:37.132Z,62.86
2023-03-15T07:37:05.938Z,62.08
2023-03-15T07:39:40.494Z,61.97
2023-03-15T07:42:11.581Z,61.20
2023-03-15T07:44:42.664Z,60.45
2023-03-15T07:47:14.456Z,59.57
2023-03-15T07:49:50.444Z,59.35
2023-03-15T07:52:20.961Z,59.30
2023-03-15T07:54:49.621Z,58.89
2023-03-15T07:57:18.514Z,58.55
2023-03-15T07:59:52.260Z,58.32
2023-03-15T08:02:30.688Z,57.48
2023-03-15T08:04:59.611Z,57.01
2023-03-15T08:07:31.584Z,56.84
2023-03-15T08:10:10.918Z,56.58
2023-03-15T08:12:51.557Z,56.67
2023-03-15T08:15:32.636Z,56.64
2023-03-15T08:18:08.756Z,56.62
2023-03-15T08:20:49.024Z,56.58
2023-03-15T08:23:21.511Z,56.43
2023-03-15T08:25:51.330Z,56.47
2023-03-15T08:28:20.287Z,56.84
2023-03-15T08:30:48.740Z,57.05
2023-03-15T08:33:24.530Z,56.75
2023-03-15T08:36:00.843Z,56.74
2023-03-15T08:38:48.494Z,56.61
2023-03-15T08:41:20.023Z,55.93
2023-03-15T08:43:52.808Z,55.71
2023-03-15T08:46:27.531Z,55.07
2023-03-15T08:48:55.897Z,54.58
2023-03-15T08:51:26.014Z,54.84
2023-03-15T08:53:54.350Z,55.32
2023-03-15T08:56:23.077Z,55.45
2023-03-15T08:58:51.278Z,54.80
2023-03-15T09:01:21.003Z,54.90
2023-03-15T09:03:50.409Z,54.40
2023-03-15T09:06:18.609Z,54.59
2023-03-15T09:08:53.479Z,54.66
2023-03-15T09:11:25.118Z,54.42
2023-03-15T09:13:56.683Z,54.11
2023-03-15T09:16:24.817Z,54.21
2023-03-15T09:18:55.307Z,54.43
2023-03-15T09:21:27.400Z,54.52
2023-03-15T09:24:01.080Z,54.58
2023-03-15T09:26:40.004Z,54.68
2023-03-15T09:29:16.588Z,54.57
2023-03-15T09:31:49.265Z,54.89
2023-03-15T09:34:21.966Z,55.36
2023-03-15T09:36:54.770Z,55.25
2023-03-15T09:39:25.220Z,55.01
2023-03-15T09:41:58.359Z,55.31
2023-03-15T09:44:51.991Z,55.07
2023-03-15T09:47:36.805Z,54.69
2023-03-15T09:50:23.851Z,55.25
2023-03-15T09:52:59.881Z,54.68
2023-03-15T09:55:35.681Z,54.62
2023-03-15T09:58:16.046Z,54.24
2023-03-15T10:00:53.495Z,53.65
2023-03-15T10:03:56.488Z,53.81
2023-03-15T10:06:36.405Z,53.87
2023-03-15T10:09:46.102Z,53.25
2023-03-15T10:13:21.375Z,52.94
2023-03-15T10:16:33.673Z,52.83
2023-03-15T10:19:50.035Z,52.77
2023-03-15T10:22:48.763Z,52.63
2023-03-15T10:25:34.986Z,52.83
2023-03-15T10:29:00.450Z,52.75
2023-03-15T10:32:17.638Z,52.52
2023-03-15T10:35:21.628Z,51.97
2023-03-15T10:38:05.286Z,51.99
2023-03-15T10:40:55.792Z,52.25
2023-03-15T10:43:35.261Z,51.86
2023-03-15T10:46:27.107Z,51.37
2023-03-15T10:49:25.840Z,51.16
2023-03-15T10:52:08.833Z,51.03
2023-03-15T10:55:37.839Z,49.94
2023-03-15T10:59:11.525Z,49.11
2023-03-15T11:01:56.518Z,48.61
2023-03-15T11:04:33.787Z,48.71
2023-03-15T11:07:16.095Z,48.35
2023-03-15T11:10:19.033Z,48.62
2023-03-15T11:13:45.410Z,48.58
2023-03-15T11:16:40.197Z,48.27
2023-03-15T11:20:15.207Z,48.13
2023-03-15T11:24:30.173Z,47.82
2023-03-15T11:28:10.927Z,48.28
2023-03-15T11:31:32.150Z,48.87
2023-03-15T11:34:56.735Z,48.87
2023-03-15T11:38:15.315Z,48.95
2023-03-15T11:41:59.319Z,48.92
2023-03-15T11:45:30.450Z,49.12
2023-03-15T11:49:02.901Z,49.26
2023-03-15T11:52:14.067Z,48.97
2023-03-15T11:56:20.572Z,49.51
2023-03-15T12:03:36.646Z,49.53
2023-03-15T12:24:19.131Z,50.07
2023-03-15T12:27:33.671Z,49.59
2023-03-15T12:35:14.548Z,49.09
2023-03-15T12:38:23.675Z,48.95
2023-03-15T12:41:53.967Z,48.87
2023-03-15T12:44:40.126Z,48.55
2023-03-15T12:48:09.604Z,48.31
2023-03-15T12:50:48.032Z,47.96
2023-03-15T12:53:31.887Z,47.91
2023-03-15T12:56:42.836Z,48.02
2023-03-15T12:59:35.341Z,47.75
2023-03-15T13:02:44.538Z,47.94
2023-03-15T13:06:01.330Z,48.07
2023-03-15T13:09:18.188Z,47.93
2023-03-15T13:12:15.850Z,47.73
2023-03-15T13:14:58.169Z,47.68
2023-03-15T13:17:59.782Z,47.67
2023-03-15T13:21:12.057Z,47.88
2023-03-15T13:23:48.958Z,47.78
2023-03-15T13:27:09.274Z,47.84
2023-03-15T13:29:42.737Z,47.53
2023-03-15T13:32:18.191Z,47.30
2023-03-15T13:34:49.462Z,47.18
2023-03-15T13:37:48.619Z,47.01
2023-03-15T13:40:58.986Z,47.04
2023-03-15T13:43:46.997Z,47.10
2023-03-15T13:46:35.819Z,47.31
2023-03-15T13:52:49.028Z,47.30
2023-03-15T13:55:53.779Z,47.34
2023-03-15T13:58:31.228Z,47.76
2023-03-15T14:01:26.865Z,47.66
2023-03-15T14:04:29.962Z,48.00
2023-03-15T14:07:34.894Z,48.16
2023-03-15T14:10:17.054Z,48.05
2023-03-15T14:12:49.331Z,47.99
2023-03-15T14:15:50.539Z,47.86
2023-03-15T14:22:44.833Z,47.14
2023-03-15T14:26:00.642Z,47.18
2023-03-15T14:54:36.584Z,48.12
2023-03-15T15:00:42.177Z,47.93
2023-03-15T15:04:05.636Z,48.19
2023-03-15T15:06:58.894Z,48.60
2023-03-15T15:09:30.860Z,49.01
2023-03-15T15:12:05.196Z,49.44
2023-03-15T15:14:50.290Z,49.79
2023-03-15T15:21:13.758Z,50.84
2023-03-15T15:24:42.796Z,51.25
2023-03-15T15:28:01.446Z,51.74
2023-03-15T15:31:13.353Z,52.01
2023-03-15T15:34:35.769Z,52.26
2023-03-15T15:37:58.958Z,52.71
2023-03-15T15:41:13.304Z,52.74
2023-03-15T15:44:20.188Z,52.88
2023-03-15T15:46:57.317Z,53.12
2023-03-15T15:49:33.658Z,53.20
2023-03-15T15:52:09.915Z,53.18
2023-03-15T15:54:46.316Z,53.35
2023-03-15T15:57:31.784Z,53.42
2023-03-15T16:00:30.855Z,53.20
2023-03-15T16:03:32.878Z,52.95
2023-03-15T16:06:10.033Z,52.74
2023-03-15T16:08:42.621Z,52.47
2023-03-15T16:11:18.225Z,52.33
2023-03-15T16:14:02.440Z,52.24
2023-03-15T16:16:54.538Z,52.33
2023-03-15T16:19:41.433Z,52.22
2023-03-15T16:22:35.228Z,52.24
2023-03-15T16:25:26.226Z,52.31
2023-03-15T16:28:11.133Z,52.46
2023-03-15T16:30:46.886Z,52.60
2023-03-15T16:33:39.430Z,52.79
2023-03-15T16:36:39.657Z,52.83
2023-03-15T16:39:21.911Z,53.08
2023-03-15T16:42:13.542Z,53.28
2023-03-15T16:44:56.672Z,53.50
2023-03-15T16:47:53.627Z,53.75
2023-03-15T16:50:51.512Z,54.10
2023-03-15T16:53:57.495Z,54.55
2023-03-15T16:56:46.588Z,54.74
2023-03-15T16:59:28.717Z,55.04
2023-03-15T17:02:03.857Z,55.40
2023-03-15T17:04:54.219Z,55.58
2023-03-15T17:08:15.869Z,55.78
2023-03-15T17:11:03.993Z,56.07
2023-03-15T17:18:36.581Z,56.76
2023-03-15T17:22:24.974Z,57.00
2023-03-15T17:25:26.059Z,57.32
2023-03-15T17:28:32.503Z,57.56
2023-03-15T17:31:46.160Z,57.78
2023-03-15T17:35:27.215Z,57.77
2023-03-15T17:38:03.331Z,58.06
2023-03-15T17:40:39.712Z,58.33
2023-03-15T17:43:15.185Z,58.54
2023-03-15T17:46:02.918Z,58.57
2023-03-15T17:48:47.071Z,58.67
2023-03-15T17:51:35.412Z,58.78
2023-03-15T17:54:27.169Z,59.00
2023-03-15T17:57:19.172Z,59.22
2023-03-15T18:00:04.607Z,59.34
2023-03-15T18:02:56.846Z,59.40
2023-03-15T18:05:31.536Z,59.68
2023-03-15T18:08:11.719Z,59.70
2023-03-15T18:11:26.691Z,59.76
2023-03-15T18:14:13.463Z,59.80
2023-03-15T18:17:08.892Z,60.05
2023-03-15T18:19:50.543Z,60.15
2023-03-15T18:26:14.848Z,60.60
2023-03-15T18:28:56.868Z,60.71
2023-03-15T18:31:53.511Z,60.79
2023-03-15T18:34:31.457Z,61.02
2023-03-15T18:37:11.478Z,61.27
2023-03-15T18:39:51.276Z,61.28
2023-03-15T18:42:36.693Z,61.46
2023-03-15T18:45:30.497Z,61.47
2023-03-15T18:48:07.789Z,61.71
2023-03-15T18:50:43.585Z,61.79
2023-03-15T18:53:18.766Z,61.94
2023-03-15T18:56:21.357Z,62.04
2023-03-15T18:59:13.817Z,62.19
2023-03-15T19:01:54.529Z,62.53
2023-03-15T19:04:23.826Z,62.84
2023-03-15T19:06:56.070Z,63.06
2023-03-15T19:09:39.775Z,63.17
2023-03-15T19:12:24.714Z,63.35
2023-03-15T19:15:00.936Z,63.31
2023-03-15T19:18:11.533Z,63.24
2023-03-15T19:21:00.166Z,63.12
2023-03-15T19:23:46.780Z,63.10
2023-03-15T19:26:22.229Z,63.38
2023-03-15T19:29:20.129Z,63.60
2023-03-15T19:32:26.730Z,63.76
2023-03-15T19:35:22.877Z,63.89
2023-03-15T19:38:10.585Z,63.80
2023-03-15T19:44:52.254Z,64.10
2023-03-15T19:47:48.085Z,63.87
2023-03-15T19:54:11.920Z,63.90
2023-03-15T19:56:42.347Z,63.96
2023-03-15T19:59:18.620Z,64.01
2023-03-15T20:02:00.850Z,64.21
2023-03-15T20:04:29.886Z,64.42
2023-03-15T20:06:59.363Z,64.44
2023-03-15T20:09:38.738Z,64.54
2023-03-15T20:12:19.235Z,64.63
2023-03-15T20:14:53.948Z,64.57
2023-03-15T20:17:25.639Z,64.53
2023-03-15T20:20:04.245Z,64.63
2023-03-15T20:22:40.528Z,64.72
2023-03-15T20:25:18.699Z,64.72
2023-03-15T20:27:55.859Z,64.79
2023-03-15T20:30:37.224Z,64.62
2023-03-15T20:33:14.995Z,64.68
2023-03-15T20:35:45.142Z,64.68
2023-03-15T20:38:14.779Z,64.69
2023-03-15T20:40:46.047Z,64.77
2023-03-15T20:43:22.577Z,64.95
2023-03-15T20:46:14.312Z,65.00
2023-03-15T20:48:44.590Z,65.03
2023-03-15T20:51:21.768Z,65.18
2023-03-15T20:53:54.310Z,65.32
2023-03-15T20:56:26.312Z,65.37
2023-03-15T20:58:58.427Z,65.59
2023-03-15T21:01:49.909Z,65.70
2023-03-15T21:06:23.968Z,65.97
2023-03-15T21:09:02.800Z,66.19
2023-03-15T21:12:37.660Z,66.20
2023-03-15T21:18:42.250Z,66.25
2023-03-15T21:21:14.478Z,66.29
2023-03-15T21:23:42.891Z,66.36
2023-03-15T21:26:16.693Z,66.46
2023-03-15T21:28:48.535Z,66.39
2023-03-15T21:31:36.443Z,66.41
2023-03-15T21:34:14.444Z,66.54
2023-03-15T21:36:45.793Z,66.63
2023-03-15T21:39:19.902Z,66.77
2023-03-15T21:41:54.693Z,66.74
2023-03-15T21:44:25.699Z,66.87
2023-03-15T21:46:57.365Z,66.80
2023-03-15T21:49:48.158Z,66.85
2023-03-15T21:52:21.524Z,66.98
2023-03-15T21:54:59.190Z,67.11
2023-03-15T21:57:36.581Z,67.10
2023-03-15T22:00:11.641Z,67.16
2023-03-15T22:02:46.599Z,67.27
2023-03-15T22:05:15.392Z,67.42
2023-03-15T22:07:52.649Z,67.42
2023-03-15T22:10:26.603Z,67.43
2023-03-15T22:13:00.629Z,67.50
2023-03-15T22:15:28.914Z,67.52
2023-03-15T22:17:57.241Z,67.48
2023-03-15T22:20:30.364Z,67.42
2023-03-15T22:23:05.106Z,67.46
2023-03-15T22:26:09.485Z,67.54
2023-03-15T22:28:55.598Z,67.77
2023-03-15T22:31:34.117Z,67.79
2023-03-15T22:34:12.203Z,67.88
2023-03-15T22:36:43.792Z,67.95
2023-03-15T22:39:15.825Z,67.98
2023-03-15T22:41:54.336Z,68.00
2023-03-15T22:44:30.462Z,68.01
2023-03-15T22:47:10.601Z,68.15
2023-03-15T22:49:48.385Z,68.24
2023-03-15T22:52:29.522Z,68.27
2023-03-15T22:55:20.883Z,68.20
2023-03-15T22:57:53.662Z,68.35
2023-03-15T23:00:32.274Z,68.28
2023-03-15T23:03:13.165Z,68.37
2023-03-15T23:05:58.852Z,68.43
2023-03-15T23:08:37.678Z,68.44
2023-03-15T23:11:24.832Z,68.48
2023-03-15T23:13:58.454Z,68.49
2023-03-15T23:16:28.830Z,68.49
2023-03-15T23:19:07.735Z,68.56
2023-03-15T23:21:42.610Z,68.59
2023-03-15T23:24:22.378Z,68.47
2023-03-15T23:27:06.947Z,68.46
2023-03-15T23:29:54.223Z,68.51
2023-03-15T23:32:44.566Z,68.59
2023-03-15T23:35:23.973Z,68.77
2023-03-15T23:38:01.609Z,68.84
2023-03-15T23:40:36.081Z,68.93
2023-03-15T23:43:14.608Z,68.99
2023-03-15T23:45:58.797Z,69.11
2023-03-15T23:48:36.627Z,69.15
2023-03-15T23:51:05.480Z,69.30
2023-03-15T23:53:42.325Z,69.30
2023-03-15T23:56:22.488Z,69.21
2023-03-15T23:59:03.118Z,69.18
